PILOTS ONLINE: 432    ATC ONLINE: 42

PALU - Cape Lisburne LRRS Airport

Location

IATA LUR
City Cape Lisburne
Country  United States
Latitude 68° 52' 30" N
Longitude 166° 6' 36" W
Elevation 16 ft
Type Medium Airport

Runways

08/26 4800 ft / 135 ft

Weather

METAR
2014/07/29 11:55
PALU 291155Z AUTO 12005KT 10SM CLR 07/05 A3033 RMK AO2 SLP269 T00700047 10077 20050 50003
TAF
2012/01/10 17:27
TAF TAF PALU 1017/1120 20020KT 8000 BLSN SKC QNH2972INS 
      BECMG 1100/1101 31012KT 9999 NSW SCT060 QNH2969INS TM23/1103Z TM29/1118Z 
      AMD 101723 LAST NO 
      AMDS

Outbound flights

Inbound flights